Time;durP1;ratioP1;P1;durP2;ratioP2;P2;SDS_P1;SDS_P2;PMS_P1;PMS_P2;Temp;Humidity;BMP_temperature;BMP_pressure;BME280_temperature;BME280_humidity;BME280_pressure;Samples;Min_cycle;Max_cycle;Signal;HPM_P1;HPM_P2
2022/04/25 00:01:40;;;;;;;7.57;5.90;;;10.20;99.90;;;;;;5031908;28;20200;-74
2022/04/25 00:04:09;;;;;;;13.57;5.83;;;10.20;99.90;;;;;;5045253;28;20715;-74
2022/04/25 00:06:37;;;;;;;13.40;6.37;;;10.10;99.90;;;;;;5044520;28;20258;-74
2022/04/25 00:09:06;;;;;;;9.07;5.70;;;10.10;99.90;;;;;;5044937;28;20201;-75
2022/04/25 00:11:34;;;;;;;9.03;5.67;;;10.00;99.90;;;;;;5045007;28;20203;-74
2022/04/25 00:14:06;;;;;;;12.70;5.90;;;10.00;99.90;;;;;;5046925;28;20197;-74
2022/04/25 00:16:35;;;;;;;18.17;6.93;;;10.00;99.90;;;;;;5045504;28;20706;-74
2022/04/25 00:19:05;;;;;;;11.17;6.13;;;9.90;99.90;;;;;;5047068;28;20207;-74
2022/04/25 00:21:34;;;;;;;8.47;5.90;;;9.80;99.90;;;;;;5044462;28;20207;-75
2022/04/25 00:24:02;;;;;;;10.73;5.70;;;9.80;99.90;;;;;;5044909;28;20203;-73
2022/04/25 00:26:30;;;;;;;9.00;6.40;;;9.70;99.90;;;;;;5044948;28;20251;-73
2022/04/25 00:28:59;;;;;;;8.80;5.63;;;9.70;99.90;;;;;;5044862;28;20196;-74
2022/04/25 00:31:27;;;;;;;8.87;6.10;;;9.70;99.90;;;;;;5044252;28;20254;-73
2022/04/25 00:33:56;;;;;;;10.70;6.20;;;9.60;99.90;;;;;;5046481;28;20259;-74
2022/04/25 00:36:25;;;;;;;12.20;6.03;;;9.60;99.90;;;;;;5044303;28;20208;-73
2022/04/25 00:38:54;;;;;;;10.53;5.70;;;9.60;99.90;;;;;;5047367;28;20208;-74
2022/04/25 00:41:22;;;;;;;6.60;5.90;;;9.50;99.90;;;;;;5044150;28;20204;-74
2022/04/25 00:43:55;;;;;;;10.87;6.33;;;9.40;99.90;;;;;;5044919;28;20231;-74
2022/04/25 00:46:25;;;;;;;11.80;6.13;;;9.40;99.90;;;;;;5044048;28;20208;-74
2022/04/25 00:48:54;;;;;;;9.00;6.20;;;9.40;99.90;;;;;;5045282;28;20200;-74
2022/04/25 00:51:23;;;;;;;10.23;6.43;;;9.40;99.90;;;;;;5031858;28;20192;-73
2022/04/25 00:53:53;;;;;;;15.30;6.90;;;9.30;99.90;;;;;;5044152;28;20197;-73
2022/04/25 00:56:22;;;;;;;13.70;6.97;;;9.20;99.90;;;;;;5046391;28;20192;-73
2022/04/25 00:58:50;;;;;;;10.20;7.33;;;9.20;99.90;;;;;;5042096;28;20221;-73
2022/04/25 01:01:19;;;;;;;10.47;6.93;;;9.20;99.90;;;;;;5042238;28;20228;-70
2022/04/25 01:03:49;;;;;;;11.63;7.50;;;9.20;99.90;;;;;;5044393;28;20197;-73
2022/04/25 01:06:18;;;;;;;11.53;7.40;;;9.10;99.90;;;;;;5043567;28;20204;-74
2022/04/25 01:08:46;;;;;;;10.23;7.27;;;9.10;99.90;;;;;;5043029;28;20738;-74
2022/04/25 01:11:16;;;;;;;14.73;7.60;;;9.10;99.90;;;;;;5045210;28;20189;-74
2022/04/25 01:13:44;;;;;;;11.00;7.43;;;9.00;99.90;;;;;;5042409;28;20761;-73
2022/04/25 01:16:13;;;;;;;14.10;8.07;;;9.00;99.90;;;;;;5044914;28;20254;-74
2022/04/25 01:18:42;;;;;;;13.80;7.03;;;8.90;99.90;;;;;;5043974;28;20350;-74
2022/04/25 01:21:11;;;;;;;15.10;7.53;;;8.90;99.90;;;;;;5040613;28;20209;-74
2022/04/25 01:29:14;;;;;;;12.10;7.73;;;8.80;99.90;;;;;;5039628;28;20658;-73
2022/04/25 01:31:44;;;;;;;14.63;8.10;;;8.80;99.90;;;;;;5043665;28;20205;-72
2022/04/25 01:34:12;;;;;;;12.30;7.80;;;8.70;99.90;;;;;;5045005;28;20229;-74
2022/04/25 01:36:41;;;;;;;15.03;9.10;;;8.70;99.90;;;;;;5044732;28;20209;-74
2022/04/25 01:39:10;;;;;;;16.77;8.60;;;8.70;99.90;;;;;;5042137;28;20222;-74
2022/04/25 01:41:40;;;;;;;16.00;8.73;;;8.70;99.90;;;;;;5045001;28;20204;-74
2022/04/25 01:44:08;;;;;;;16.23;8.80;;;8.60;99.90;;;;;;5044916;28;20208;-74
2022/04/25 01:46:38;;;;;;;13.03;8.90;;;8.60;99.90;;;;;;5041796;28;20236;-74
2022/04/25 01:49:07;;;;;;;17.83;9.50;;;8.60;99.90;;;;;;5046635;28;20201;-73
2022/04/25 01:51:35;;;;;;;13.07;9.33;;;8.60;99.90;;;;;;5043410;28;20192;-73
2022/04/25 01:54:04;;;;;;;18.10;9.87;;;8.50;99.90;;;;;;5045793;28;20209;-73
2022/04/25 01:56:34;;;;;;;18.10;9.87;;;8.50;99.90;;;;;;5044702;28;20201;-74
2022/04/25 01:59:02;;;;;;;17.43;9.90;;;8.50;99.90;;;;;;5032299;28;20212;-74
2022/04/25 02:01:31;;;;;;;18.00;9.97;;;8.40;99.90;;;;;;5046106;28;20193;-73
2022/04/25 02:03:59;;;;;;;19.33;9.97;;;8.40;99.90;;;;;;5044264;28;20201;-74
2022/04/25 02:06:29;;;;;;;14.63;10.03;;;8.40;99.90;;;;;;5044309;28;20284;-74
2022/04/25 02:08:57;;;;;;;13.30;10.33;;;8.30;99.90;;;;;;5043516;28;20191;-74
2022/04/25 02:11:25;;;;;;;16.43;10.70;;;8.30;99.90;;;;;;5048229;28;20197;-72
2022/04/25 02:13:55;;;;;;;20.07;10.07;;;8.30;99.90;;;;;;5056397;28;20276;-73
2022/04/25 02:16:25;;;;;;;19.17;11.00;;;8.20;99.90;;;;;;5046902;28;20192;-74
2022/04/25 02:18:56;;;;;;;16.83;10.40;;;8.20;99.90;;;;;;5043566;28;20231;-74
2022/04/25 02:21:24;;;;;;;18.57;11.13;;;8.20;99.90;;;;;;5042200;28;20690;-74
2022/04/25 02:23:52;;;;;;;17.77;11.63;;;8.20;99.90;;;;;;5045845;28;20204;-74
2022/04/25 02:26:21;;;;;;;20.47;11.70;;;8.10;99.90;;;;;;5045935;28;20638;-70
2022/04/25 02:28:50;;;;;;;19.60;11.50;;;8.10;99.90;;;;;;5042700;28;20207;-73
2022/04/25 02:31:20;;;;;;;17.40;10.83;;;8.10;99.90;;;;;;5045388;28;20589;-74
2022/04/25 02:33:50;;;;;;;25.00;12.10;;;8.10;99.90;;;;;;5047011;28;20315;-74
2022/04/25 02:36:19;;;;;;;22.03;12.47;;;8.00;99.90;;;;;;5045557;28;20225;-74
2022/04/25 02:38:47;;;;;;;23.40;12.17;;;8.00;99.90;;;;;;5044606;28;20243;-74
2022/04/25 02:41:16;;;;;;;18.53;12.27;;;8.00;99.90;;;;;;5046352;28;20242;-69
2022/04/25 02:43:45;;;;;;;22.97;12.20;;;7.90;99.90;;;;;;5045679;28;20239;-74
2022/04/25 02:46:15;;;;;;;19.50;13.13;;;7.90;99.90;;;;;;5046088;28;20201;-73
2022/04/25 02:48:46;;;;;;;19.17;12.53;;;7.90;99.90;;;;;;5046382;28;20678;-74
2022/04/25 02:51:16;;;;;;;25.63;13.87;;;7.80;99.90;;;;;;5047187;28;20266;-74
2022/04/25 02:53:44;;;;;;;20.37;13.10;;;7.80;99.90;;;;;;5045643;28;20197;-74
2022/04/25 02:56:12;;;;;;;21.70;13.07;;;7.80;99.90;;;;;;5045211;28;20279;-74
2022/04/25 02:58:41;;;;;;;28.37;13.47;;;7.70;99.90;;;;;;5044501;28;20744;-74
2022/04/25 03:01:10;;;;;;;28.00;13.67;;;7.70;99.90;;;;;;5040069;28;20345;-74
2022/04/25 03:03:39;;;;;;;23.83;14.00;;;7.60;99.90;;;;;;5046847;28;20197;-73
2022/04/25 03:06:12;;;;;;;26.77;14.20;;;7.60;99.90;;;;;;5044987;28;20657;-73
2022/04/25 03:08:40;;;;;;;26.70;14.77;;;7.60;99.90;;;;;;5038673;28;20291;-74
2022/04/25 03:11:10;;;;;;;24.90;14.37;;;7.60;99.90;;;;;;5040776;28;20701;-74
2022/04/25 03:13:39;;;;;;;25.87;14.87;;;7.50;99.90;;;;;;5043232;28;20224;-74
2022/04/25 03:16:09;;;;;;;22.30;14.63;;;7.60;99.90;;;;;;5043760;28;20271;-72
2022/04/25 03:18:38;;;;;;;26.50;15.30;;;7.60;99.90;;;;;;5045703;28;20626;-74
2022/04/25 03:21:07;;;;;;;23.27;15.17;;;7.50;99.90;;;;;;5038994;28;20548;-73
2022/04/25 03:23:37;;;;;;;28.47;14.80;;;7.50;99.90;;;;;;5045262;28;20284;-73
2022/04/25 03:26:06;;;;;;;23.53;14.77;;;7.50;99.90;;;;;;5044445;28;20192;-72
2022/04/25 03:28:35;;;;;;;29.50;16.10;;;7.50;99.90;;;;;;5043173;28;20283;-73
2022/04/25 03:31:06;;;;;;;26.80;15.30;;;7.50;99.90;;;;;;5045083;28;20275;-73
2022/04/25 03:33:35;;;;;;;30.23;15.97;;;7.40;99.90;;;;;;5037013;28;216889;-74
2022/04/25 03:36:04;;;;;;;30.23;15.73;;;7.40;99.90;;;;;;5035870;28;20569;-73
2022/04/25 03:38:33;;;;;;;27.43;15.43;;;7.40;99.90;;;;;;5041192;28;21206;-73
2022/04/25 03:41:03;;;;;;;26.43;16.10;;;7.30;99.90;;;;;;5047137;28;20207;-74
2022/04/25 03:43:31;;;;;;;26.70;15.83;;;7.30;99.90;;;;;;5045901;28;20201;-73
2022/04/25 03:46:01;;;;;;;28.37;16.57;;;7.30;99.90;;;;;;5046234;28;20659;-74
2022/04/25 03:48:29;;;;;;;23.37;15.50;;;7.20;99.90;;;;;;5042897;28;20201;-73
2022/04/25 03:50:58;;;;;;;24.63;15.20;;;7.20;99.90;;;;;;5042639;28;20196;-74
2022/04/25 03:53:26;;;;;;;25.97;16.70;;;7.20;99.90;;;;;;5042973;28;20204;-73
2022/04/25 03:58:47;;;;;;;25.00;16.00;;;7.20;99.90;;;;;;5007058;28;20863;-74
2022/04/25 04:01:16;;;;;;;26.17;16.77;;;7.20;99.90;;;;;;5036750;28;20193;-74
2022/04/25 04:03:45;;;;;;;29.27;17.77;;;7.20;99.90;;;;;;5044696;28;20224;-74
2022/04/25 04:06:15;;;;;;;31.63;17.40;;;7.30;99.90;;;;;;5042816;28;20191;-74
2022/04/25 04:08:44;;;;;;;31.57;17.27;;;7.30;99.90;;;;;;5044120;28;20192;-74
2022/04/25 04:11:12;;;;;;;25.13;16.07;;;7.30;99.90;;;;;;5043040;28;20200;-74
2022/04/25 04:13:40;;;;;;;32.97;16.90;;;7.30;99.90;;;;;;5043621;28;20204;-74
2022/04/25 04:16:10;;;;;;;26.73;16.93;;;7.30;99.90;;;;;;5042532;28;20665;-73
2022/04/25 04:18:40;;;;;;;29.40;16.20;;;7.30;99.90;;;;;;5044513;28;20292;-74
2022/04/25 04:21:09;;;;;;;26.53;16.03;;;7.30;99.90;;;;;;5043707;28;20292;-74
2022/04/25 04:23:38;;;;;;;26.80;16.77;;;7.30;99.90;;;;;;5044982;28;20199;-74
2022/04/25 04:26:06;;;;;;;29.70;16.73;;;7.30;99.90;;;;;;5045306;28;20220;-73
2022/04/25 04:28:36;;;;;;;24.97;16.03;;;7.20;99.90;;;;;;5046309;28;20223;-74
2022/04/25 04:31:04;;;;;;;29.97;17.33;;;7.20;99.90;;;;;;5044128;28;20213;-74
2022/04/25 04:33:34;;;;;;;33.67;17.63;;;7.20;99.90;;;;;;5044053;28;20290;-74
2022/04/25 04:36:18;;;;;;;27.40;16.23;;;7.20;99.90;;;;;;5044329;28;20268;-74
2022/04/25 04:38:47;;;;;;;27.93;16.87;;;7.20;99.90;;;;;;5044640;28;20558;-74
2022/04/25 04:41:15;;;;;;;28.87;17.20;;;7.20;99.90;;;;;;5044416;28;20201;-74
2022/04/25 04:43:44;;;;;;;64.87;36.37;;;7.30;99.90;;;;;;5045723;28;20200;-73
2022/04/25 04:46:12;;;;;;;86.40;46.07;;;7.40;99.90;;;;;;5043717;28;20196;-74
2022/04/25 04:48:42;;;;;;;51.33;28.23;;;7.40;99.90;;;;;;5041437;28;20280;-74
2022/04/25 04:51:10;;;;;;;44.20;22.67;;;7.40;99.90;;;;;;5041989;28;20272;-74
2022/04/25 04:53:39;;;;;;;28.43;17.87;;;7.40;99.90;;;;;;5037066;28;20200;-72
2022/04/25 04:56:07;;;;;;;31.93;17.10;;;7.50;99.90;;;;;;5040813;28;20200;-72
2022/04/25 04:58:40;;;;;;;26.13;16.37;;;7.50;99.90;;;;;;5041657;28;20197;-74
2022/04/25 05:01:09;;;;;;;26.67;15.90;;;7.60;99.90;;;;;;5040721;28;20220;-74
2022/04/25 05:03:41;;;;;;;25.47;15.90;;;7.60;99.90;;;;;;5036502;28;20208;-74
2022/04/25 05:06:12;;;;;;;25.07;16.60;;;7.60;99.90;;;;;;5041866;28;20208;-74
2022/04/25 05:08:40;;;;;;;21.90;15.40;;;7.60;99.90;;;;;;5042435;28;20192;-74
2022/04/25 05:11:09;;;;;;;28.03;15.97;;;7.60;99.90;;;;;;5042948;28;20208;-73
2022/04/25 05:13:38;;;;;;;30.00;15.97;;;7.60;99.90;;;;;;5039596;28;20280;-74
2022/04/25 05:16:07;;;;;;;25.30;15.53;;;7.60;99.90;;;;;;5040081;28;20197;-73
2022/04/25 05:18:35;;;;;;;26.60;15.60;;;7.60;99.90;;;;;;5037932;28;20216;-74
2022/04/25 05:21:04;;;;;;;25.83;15.77;;;7.60;99.90;;;;;;5039156;28;20622;-73
2022/04/25 05:23:34;;;;;;;26.80;15.63;;;7.70;99.90;;;;;;5035361;28;20695;-74
2022/04/25 05:26:02;;;;;;;23.73;15.60;;;7.70;99.90;;;;;;5041249;28;20284;-73
2022/04/25 05:28:32;;;;;;;26.73;15.90;;;7.80;99.90;;;;;;5044029;28;20207;-74
2022/04/25 05:31:00;;;;;;;22.63;15.57;;;7.80;99.90;;;;;;5038508;28;20211;-74
2022/04/25 05:33:28;;;;;;;28.97;15.60;;;7.90;99.90;;;;;;5042047;28;20323;-73
2022/04/25 05:35:57;;;;;;;24.03;14.67;;;8.10;99.90;;;;;;5040182;28;20383;-73
2022/04/25 05:38:25;;;;;;;26.80;14.93;;;8.20;99.90;;;;;;5037692;28;20205;-71
2022/04/25 05:40:56;;;;;;;25.13;13.83;;;8.30;99.90;;;;;;5038977;28;20217;-73
2022/04/25 05:43:26;;;;;;;22.97;14.33;;;8.50;99.90;;;;;;5045392;28;20198;-68
2022/04/25 05:45:54;;;;;;;18.27;13.33;;;8.60;99.90;;;;;;5040873;28;20309;-73
2022/04/25 05:53:54;;;;;;;18.10;12.63;;;9.00;99.90;;;;;;5039804;28;20200;-74
2022/04/25 05:56:24;;;;;;;19.10;12.50;;;9.20;99.90;;;;;;5038039;28;20193;-73
2022/04/25 05:58:53;;;;;;;19.77;12.50;;;9.40;99.90;;;;;;5041090;28;20217;-73
2022/04/25 06:01:22;;;;;;;21.23;12.73;;;9.50;99.90;;;;;;5040723;28;20236;-73
2022/04/25 06:03:50;;;;;;;18.53;11.73;;;9.70;99.90;;;;;;5038907;28;20192;-73
2022/04/25 06:06:21;;;;;;;20.03;11.70;;;9.80;99.90;;;;;;5036916;28;20204;-74
2022/04/25 06:08:49;;;;;;;20.83;12.63;;;10.00;99.90;;;;;;5038779;28;20212;-75
2022/04/25 06:11:18;;;;;;;21.93;12.20;;;10.10;99.90;;;;;;5041178;28;20220;-75
2022/04/25 06:13:50;;;;;;;21.23;11.97;;;10.20;99.90;;;;;;5043295;28;20205;-76
2022/04/25 06:16:18;;;;;;;19.83;11.97;;;10.30;99.90;;;;;;5044220;28;20197;-75
2022/04/25 06:18:47;;;;;;;16.33;11.27;;;10.50;99.90;;;;;;5046299;28;20181;-75
2022/04/25 06:21:15;;;;;;;19.60;11.20;;;10.60;99.90;;;;;;5042863;28;20230;-75
2022/04/25 06:23:44;;;;;;;17.03;11.20;;;10.70;99.90;;;;;;5046777;28;20205;-75
2022/04/25 06:26:12;;;;;;;18.63;10.87;;;10.80;99.90;;;;;;5046164;28;20255;-75
2022/04/25 06:28:41;;;;;;;22.03;11.27;;;10.90;99.90;;;;;;5047626;28;20284;-75
2022/04/25 06:31:11;;;;;;;17.83;10.93;;;11.00;99.90;;;;;;5049238;28;20201;-75
2022/04/25 06:33:40;;;;;;;18.57;11.07;;;11.10;99.90;;;;;;5049268;28;20693;-75
2022/04/25 06:36:08;;;;;;;18.03;10.20;;;11.20;99.90;;;;;;5042506;28;20209;-74
2022/04/25 06:38:37;;;;;;;17.77;10.13;;;11.30;99.90;;;;;;5041272;28;20201;-75
2022/04/25 06:41:07;;;;;;;17.60;11.10;;;11.20;99.90;;;;;;5046066;28;20551;-75
2022/04/25 06:43:36;;;;;;;17.30;10.50;;;11.20;99.90;;;;;;5049152;28;20223;-75
2022/04/25 06:46:05;;;;;;;15.60;9.90;;;11.10;99.90;;;;;;5045833;28;20200;-75
2022/04/25 06:48:39;;;;;;;13.40;9.70;;;11.20;99.90;;;;;;5045377;28;20243;-76
2022/04/25 06:51:08;;;;;;;13.30;9.60;;;11.20;99.90;;;;;;5046546;28;20208;-75
2022/04/25 06:53:36;;;;;;;16.17;10.07;;;11.40;99.90;;;;;;5044801;28;20284;-74
2022/04/25 06:56:05;;;;;;;16.90;9.63;;;11.60;99.90;;;;;;5054545;28;20799;-76
2022/04/25 06:58:33;;;;;;;17.63;10.13;;;11.60;99.90;;;;;;5049874;28;20212;-75
2022/04/25 07:01:03;;;;;;;22.40;10.33;;;11.60;99.90;;;;;;5047442;28;20220;-76
2022/04/25 07:03:31;;;;;;;18.23;9.43;;;11.60;99.90;;;;;;5047756;28;20271;-75
2022/04/25 07:06:01;;;;;;;17.70;10.57;;;11.60;99.90;;;;;;5043965;28;20203;-75
2022/04/25 07:08:30;;;;;;;16.87;9.80;;;11.70;99.90;;;;;;5041339;28;20205;-76
2022/04/25 07:10:58;;;;;;;12.20;9.43;;;11.80;99.90;;;;;;5051551;28;20251;-75
2022/04/25 07:13:27;;;;;;;20.40;10.40;;;12.10;99.90;;;;;;5046294;28;20193;-74
2022/04/25 07:16:01;;;;;;;10.57;9.47;;;12.20;99.90;;;;;;5048428;28;20203;-75
2022/04/25 07:18:30;;;;;;;16.80;9.67;;;12.30;99.90;;;;;;5044369;28;20204;-76
2022/04/25 07:20:58;;;;;;;17.37;9.60;;;12.40;99.90;;;;;;5042585;28;20220;-76
2022/04/25 07:28:59;;;;;;;11.70;8.70;;;13.10;99.90;;;;;;5053349;28;20201;-75
2022/04/25 07:31:28;;;;;;;13.70;9.07;;;13.20;99.90;;;;;;5047672;28;20239;-74
2022/04/25 07:33:59;;;;;;;14.00;9.37;;;13.10;99.90;;;;;;5049514;28;20247;-76
2022/04/25 07:36:27;;;;;;;14.30;9.60;;;13.00;99.90;;;;;;5046482;28;20209;-75
2022/04/25 07:38:57;;;;;;;11.17;9.13;;;12.80;99.90;;;;;;5047564;28;20205;-76
2022/04/25 07:41:27;;;;;;;11.37;9.03;;;12.80;99.90;;;;;;5047913;28;20217;-76
2022/04/25 07:43:56;;;;;;;14.30;9.33;;;12.80;99.90;;;;;;5049922;28;20193;-75
2022/04/25 07:46:26;;;;;;;14.50;8.83;;;12.90;99.90;;;;;;5044265;28;20280;-72
2022/04/25 07:48:55;;;;;;;18.23;9.97;;;12.90;99.90;;;;;;5046675;28;20251;-76
2022/04/25 07:51:23;;;;;;;15.03;10.27;;;12.90;99.90;;;;;;5043502;28;20286;-76
2022/04/25 07:53:52;;;;;;;15.13;10.30;;;12.90;99.90;;;;;;5048695;28;20205;-76
2022/04/25 07:56:22;;;;;;;16.67;9.83;;;12.70;99.90;;;;;;5046493;28;20203;-75
2022/04/25 07:58:50;;;;;;;14.77;9.77;;;12.80;99.90;;;;;;5046409;28;20205;-75
2022/04/25 08:01:19;;;;;;;13.80;10.53;;;12.70;99.90;;;;;;5046564;28;20208;-75
2022/04/25 08:03:48;;;;;;;18.63;10.37;;;12.80;99.90;;;;;;5042112;28;20197;-75
2022/04/25 08:06:20;;;;;;;19.37;9.97;;;13.00;99.90;;;;;;5043608;28;20193;-76
2022/04/25 08:08:49;;;;;;;14.07;9.23;;;13.00;99.90;;;;;;5049465;28;20258;-76
2022/04/25 08:11:18;;;;;;;15.23;9.70;;;13.10;99.90;;;;;;5048209;28;20242;-76
2022/04/25 08:19:21;;;;;;;12.40;9.40;;;13.70;99.90;;;;;;5045815;28;20577;-74
2022/04/25 08:21:50;;;;;;;13.10;9.40;;;14.20;99.90;;;;;;5044848;28;20783;-75
2022/04/25 08:24:19;;;;;;;12.43;9.03;;;14.50;99.90;;;;;;5041282;28;20563;-76
2022/04/25 08:26:47;;;;;;;13.10;8.80;;;14.70;99.90;;;;;;5046914;28;20694;-76
2022/04/25 08:29:17;;;;;;;10.83;8.13;;;15.10;99.90;;;;;;5046077;28;20527;-72
2022/04/25 08:31:45;;;;;;;13.90;7.87;;;15.80;99.90;;;;;;5044967;28;20536;-74
2022/04/25 08:34:14;;;;;;;10.73;8.10;;;16.30;99.90;;;;;;5048080;28;20232;-74
2022/04/25 08:36:43;;;;;;;9.57;8.53;;;16.30;99.90;;;;;;5045286;28;20210;-73
2022/04/25 08:39:14;;;;;;;14.13;8.33;;;15.50;99.90;;;;;;5049024;28;20603;-74
2022/04/25 08:41:47;;;;;;;11.07;7.90;;;15.10;99.90;;;;;;5044691;28;20297;-73
2022/04/25 08:44:19;;;;;;;16.00;8.47;;;14.70;99.90;;;;;;5054241;28;20295;-73
2022/04/25 08:46:51;;;;;;;11.90;7.97;;;14.50;99.90;;;;;;5033830;28;20651;-72
2022/04/25 08:49:20;;;;;;;11.33;8.70;;;14.10;99.90;;;;;;5051408;28;20237;-72
2022/04/25 08:51:58;;;;;;;12.83;8.73;;;14.00;99.90;;;;;;5043826;28;20559;-75
2022/04/25 08:54:29;;;;;;;12.73;9.33;;;13.90;99.90;;;;;;5045593;28;20768;-75
2022/04/25 08:56:59;;;;;;;17.23;9.40;;;14.00;99.90;;;;;;5043124;28;20618;-75
2022/04/25 08:59:31;;;;;;;12.03;8.83;;;14.10;99.90;;;;;;5046597;28;20667;-75
2022/04/25 09:02:00;;;;;;;13.47;9.47;;;14.20;99.90;;;;;;5045141;28;20698;-75
2022/04/25 09:04:29;;;;;;;16.50;9.20;;;14.40;99.90;;;;;;5045436;28;20286;-75
2022/04/25 09:06:57;;;;;;;15.87;10.07;;;14.40;99.90;;;;;;5043876;28;20276;-76
2022/04/25 09:09:26;;;;;;;15.27;9.87;;;14.50;99.90;;;;;;5045788;28;20572;-72
2022/04/25 09:12:14;;;;;;;14.50;10.37;;;14.70;99.90;;;;;;5047281;28;20832;-75
2022/04/25 09:14:45;;;;;;;13.50;10.33;;;14.60;99.90;;;;;;5044993;28;20188;-75
2022/04/25 09:17:32;;;;;;;20.30;9.67;;;14.70;99.90;;;;;;5039637;28;20246;-75
2022/04/25 09:20:00;;;;;;;14.67;9.53;;;15.00;99.90;;;;;;5043340;28;20295;-75
2022/04/25 09:22:33;;;;;;;14.60;10.33;;;15.10;99.90;;;;;;5036243;28;20698;-75
2022/04/25 09:25:09;;;;;;;12.97;10.07;;;14.80;99.90;;;;;;5038283;28;20280;-75
2022/04/25 09:28:12;;;;;;;14.27;10.00;;;14.60;99.90;;;;;;5044003;28;20205;-75
2022/04/25 09:30:56;;;;;;;13.00;10.13;;;14.40;99.90;;;;;;5044343;28;20201;-75
2022/04/25 09:33:28;;;;;;;17.00;11.30;;;14.30;99.90;;;;;;5040626;28;22148;-75
2022/04/25 09:35:58;;;;;;;14.27;11.17;;;14.20;99.90;;;;;;5049143;28;20197;-75
2022/04/25 09:38:30;;;;;;;16.30;11.07;;;14.10;99.90;;;;;;5039292;28;20964;-73
2022/04/25 09:41:00;;;;;;;15.10;11.37;;;14.10;99.90;;;;;;5046362;28;20865;-74
2022/04/25 09:43:32;;;;;;;22.77;12.93;;;14.00;99.90;;;;;;5044966;28;20231;-75
2022/04/25 09:46:03;;;;;;;12.73;10.53;;;13.90;99.90;;;;;;5041589;28;20263;-75
2022/04/25 09:48:32;;;;;;;19.33;11.70;;;14.40;99.90;;;;;;5046439;28;20246;-75
2022/04/25 09:51:01;;;;;;;20.23;10.53;;;14.80;99.90;;;;;;5040132;28;20216;-75
2022/04/25 09:53:44;;;;;;;12.20;10.70;;;14.80;99.90;;;;;;5045568;28;20249;-75
2022/04/25 09:56:17;;;;;;;19.50;11.37;;;14.70;99.90;;;;;;5045260;28;20191;-75
2022/04/25 09:58:57;;;;;;;19.50;10.90;;;14.70;99.90;;;;;;5044122;28;20212;-74
2022/04/25 10:01:28;;;;;;;16.13;9.87;;;15.30;99.90;;;;;;5042927;28;20192;-75
2022/04/25 10:03:57;;;;;;;10.37;8.67;;;16.00;99.90;;;;;;5031179;28;20204;-73
2022/04/25 10:06:28;;;;;;;11.73;8.40;;;16.90;99.90;;;;;;5036338;28;20606;-73
2022/04/25 10:09:00;;;;;;;11.23;8.33;;;17.90;99.90;;;;;;5044074;28;20279;-74
2022/04/25 10:11:33;;;;;;;11.57;8.07;;;19.10;99.90;;;;;;5047166;28;20234;-73
2022/04/25 10:14:01;;;;;;;11.53;7.90;;;19.30;99.90;;;;;;5047869;28;20205;-74
2022/04/25 10:16:34;;;;;;;12.07;7.60;;;19.00;99.90;;;;;;5039777;28;20274;-74
2022/04/25 10:19:03;;;;;;;9.10;7.47;;;19.10;99.90;;;;;;5044101;28;20202;-74
2022/04/25 10:21:33;;;;;;;9.60;7.77;;;18.50;99.90;;;;;;5041270;28;20200;-72
2022/04/25 10:24:02;;;;;;;10.73;8.17;;;17.80;99.90;;;;;;5042548;28;20710;-72
2022/04/25 10:26:31;;;;;;;13.47;9.30;;;17.20;99.90;;;;;;5048280;28;20262;-72
2022/04/25 10:29:08;;;;;;;14.83;11.00;;;15.70;99.90;;;;;;5045856;28;20203;-72
2022/04/25 10:31:41;;;;;;;17.47;13.73;;;14.50;99.90;;;;;;5044830;28;20208;-71
2022/04/25 10:34:10;;;;;;;17.67;13.87;;;13.60;99.90;;;;;;5047249;28;20568;-72
2022/04/25 10:36:47;;;;;;;18.60;15.00;;;13.00;99.90;;;;;;5041759;28;20201;-71
2022/04/25 10:39:17;;;;;;;20.47;14.83;;;12.70;99.90;;;;;;5045436;28;20235;-74
2022/04/25 10:44:56;;;;;;;17.47;14.70;;;12.30;99.90;;;;;;5046381;28;20215;-74
2022/04/25 10:47:26;;;;;;;19.17;14.90;;;12.20;99.90;;;;;;5038352;28;20217;-74
2022/04/25 10:50:15;;;;;;;16.50;12.10;;;12.10;99.90;;;;;;5049418;28;20203;-75
2022/04/25 10:53:01;;;;;;;14.20;11.80;;;11.70;99.90;;;;;;5040809;28;20299;-74
2022/04/25 10:55:38;;;;;;;14.43;10.37;;;11.70;99.90;;;;;;5049171;28;20231;-75
2022/04/25 10:58:20;;;;;;;12.60;10.60;;;11.70;99.90;;;;;;5027611;28;20215;-75
2022/04/25 11:00:53;;;;;;;10.63;9.53;;;11.70;99.90;;;;;;5046620;28;20205;-74
2022/04/25 11:04:01;;;;;;;13.33;9.97;;;11.60;99.90;;;;;;5047638;28;20227;-75
2022/04/25 11:06:31;;;;;;;17.73;12.30;;;11.60;99.90;;;;;;5044625;28;20196;-75
2022/04/25 11:09:00;;;;;;;14.87;11.63;;;11.80;99.90;;;;;;5042176;28;20203;-75
2022/04/25 11:11:30;;;;;;;13.00;11.60;;;11.90;99.90;;;;;;5043803;28;20205;-76
2022/04/25 11:14:16;;;;;;;13.60;11.53;;;12.20;99.90;;;;;;5041504;28;20201;-75
2022/04/25 11:17:08;;;;;;;13.97;11.10;;;12.40;99.90;;;;;;5042933;28;20818;-76
2022/04/25 11:19:48;;;;;;;18.53;13.07;;;12.70;99.90;;;;;;5044310;28;20225;-75
2022/04/25 11:22:53;;;;;;;15.60;13.27;;;13.00;99.90;;;;;;5039719;28;20211;-73
2022/04/25 11:25:39;;;;;;;16.77;13.40;;;13.30;99.90;;;;;;5045036;28;20197;-72
2022/04/25 11:28:08;;;;;;;14.30;12.27;;;13.90;99.90;;;;;;5047344;28;20625;-73
2022/04/25 11:30:38;;;;;;;16.77;13.03;;;14.30;99.90;;;;;;5048801;28;20217;-73
2022/04/25 11:33:08;;;;;;;20.30;14.90;;;14.50;99.90;;;;;;5045252;28;20197;-71
2022/04/25 11:35:39;;;;;;;21.03;13.27;;;14.90;99.90;;;;;;5043908;28;20210;-72
2022/04/25 11:38:08;;;;;;;15.70;12.90;;;15.40;99.90;;;;;;5041418;28;20190;-72
2022/04/25 11:40:39;;;;;;;18.33;12.43;;;16.10;99.90;;;;;;5038788;28;20204;-72
2022/04/25 11:43:07;;;;;;;13.80;11.33;;;16.80;99.90;;;;;;5046928;28;20222;-73
2022/04/25 11:45:36;;;;;;;14.67;11.93;;;16.90;99.90;;;;;;5038907;28;20205;-72
2022/04/25 11:48:12;;;;;;;13.90;11.70;;;17.10;99.90;;;;;;5039914;28;20205;-72
2022/04/25 11:50:50;;;;;;;13.30;11.20;;;17.30;99.90;;;;;;5044108;28;20258;-72
2022/04/25 11:53:32;;;;;;;13.83;11.80;;;17.70;99.90;;;;;;5045064;28;20275;-72
2022/04/25 11:56:13;;;;;;;12.97;11.10;;;17.80;99.90;;;;;;5046161;28;20250;-72
2022/04/25 11:58:41;;;;;;;15.20;11.80;;;18.10;99.90;;;;;;5039587;28;20220;-73
2022/04/25 12:01:10;;;;;;;16.43;12.10;;;18.20;99.90;;;;;;5046427;28;20258;-72
2022/04/25 12:03:38;;;;;;;13.63;11.83;;;17.40;99.90;;;;;;5047638;28;20231;-72
2022/04/25 12:06:12;;;;;;;15.83;12.87;;;16.80;99.90;;;;;;5048116;28;20280;-73
2022/04/25 12:17:04;;;;;;;10.63;8.87;;;14.50;99.90;;;;;;5044394;28;20197;-72
2022/04/25 12:19:33;;;;;;;8.83;8.13;;;14.10;99.90;;;;;;5046431;28;20195;-72
2022/04/25 12:22:03;;;;;;;7.47;6.80;;;13.90;99.90;;;;;;5046428;28;20270;-72
2022/04/25 12:24:33;;;;;;;7.60;6.90;;;13.70;99.90;;;;;;5044987;28;20208;-71
2022/04/25 12:27:13;;;;;;;7.60;6.90;;;13.70;99.90;;;;;;5047977;28;20197;-72
2022/04/25 12:30:06;;;;;;;7.37;6.70;;;13.70;99.90;;;;;;5041924;28;20224;-72
2022/04/25 12:32:35;;;;;;;8.17;7.33;;;13.60;99.90;;;;;;5042438;28;20201;-73
2022/04/25 12:35:04;;;;;;;10.10;9.10;;;13.50;99.90;;;;;;5048247;28;20292;-73
2022/04/25 12:37:41;;;;;;;16.03;9.23;;;13.40;99.90;;;;;;5045265;28;20713;-72
2022/04/25 12:40:13;;;;;;;11.60;10.40;;;13.30;99.90;;;;;;5047023;28;20279;-71
2022/04/25 12:42:50;;;;;;;12.73;10.13;;;13.30;99.90;;;;;;5044280;28;20301;-73
2022/04/25 12:45:19;;;;;;;18.53;11.60;;;13.20;99.90;;;;;;5047144;28;20227;-73
2022/04/25 12:47:55;;;;;;;14.97;11.97;;;13.20;99.90;;;;;;5044020;28;20242;-73
2022/04/25 12:50:43;;;;;;;14.90;11.80;;;13.10;99.90;;;;;;5043137;28;20279;-73
2022/04/25 12:53:12;;;;;;;17.60;11.20;;;13.20;99.90;;;;;;5043730;28;20200;-73
2022/04/25 12:55:46;;;;;;;12.93;10.13;;;13.30;99.90;;;;;;5047003;28;20280;-73
2022/04/25 12:58:16;;;;;;;13.07;10.73;;;13.40;99.90;;;;;;5045658;28;20200;-73
2022/04/25 13:00:47;;;;;;;11.57;9.80;;;13.50;99.90;;;;;;5042660;28;20189;-72
2022/04/25 13:03:35;;;;;;;10.07;8.97;;;13.70;99.90;;;;;;5040346;28;20689;-73
2022/04/25 13:06:04;;;;;;;10.17;9.00;;;14.00;99.90;;;;;;5043454;28;20232;-73
2022/04/25 13:08:33;;;;;;;12.83;9.87;;;14.20;99.90;;;;;;5042961;28;20307;-69
2022/04/25 13:11:03;;;;;;;10.10;8.73;;;14.30;99.90;;;;;;5039758;28;20304;-73
2022/04/25 13:13:32;;;;;;;10.20;9.03;;;14.50;99.90;;;;;;5046816;28;20597;-70
2022/04/25 13:16:01;;;;;;;9.77;8.87;;;14.40;99.90;;;;;;5042941;28;20192;-74
2022/04/25 13:18:29;;;;;;;12.87;9.37;;;14.30;99.90;;;;;;5038143;28;20610;-73
2022/04/25 13:20:58;;;;;;;16.67;11.37;;;14.20;99.90;;;;;;5043065;28;20200;-73
2022/04/25 13:23:28;;;;;;;13.30;11.60;;;14.00;99.90;;;;;;5036610;28;20551;-73
2022/04/25 13:25:56;;;;;;;13.97;11.80;;;13.70;99.90;;;;;;5043889;28;20681;-72
2022/04/25 13:28:26;;;;;;;12.80;11.50;;;13.50;99.90;;;;;;5038720;28;20582;-73
2022/04/25 13:31:01;;;;;;;16.27;12.33;;;13.60;99.90;;;;;;5040962;28;20212;-73